sensor_id;sensor_type;location;lat;lon;timestamp;P1;durP1;ratioP1;P2;durP2;ratioP2
14770;SDS011;7477;45.222;5.688;2023-07-22T00:01:52;2.70;;;2.50;;
14770;SDS011;7477;45.222;5.688;2023-07-22T00:05:11;2.58;;;2.25;;
14770;SDS011;7477;45.222;5.688;2023-07-22T00:08:31;4.50;;;2.20;;
14770;SDS011;7477;45.222;5.688;2023-07-22T00:11:54;2.90;;;2.30;;
14770;SDS011;7477;45.222;5.688;2023-07-22T00:15:13;3.65;;;2.42;;
14770;SDS011;7477;45.222;5.688;2023-07-22T00:18:33;3.05;;;2.08;;
14770;SDS011;7477;45.222;5.688;2023-07-22T00:21:52;4.70;;;3.05;;
14770;SDS011;7477;45.222;5.688;2023-07-22T00:25:12;4.00;;;2.38;;
14770;SDS011;7477;45.222;5.688;2023-07-22T00:28:31;2.90;;;2.70;;
14770;SDS011;7477;45.222;5.688;2023-07-22T00:31:50;2.65;;;2.30;;
14770;SDS011;7477;45.222;5.688;2023-07-22T00:35:09;2.63;;;2.40;;
14770;SDS011;7477;45.222;5.688;2023-07-22T00:38:28;5.32;;;3.20;;
14770;SDS011;7477;45.222;5.688;2023-07-22T00:41:47;2.55;;;2.35;;
14770;SDS011;7477;45.222;5.688;2023-07-22T00:45:07;3.75;;;2.50;;
14770;SDS011;7477;45.222;5.688;2023-07-22T00:48:27;3.55;;;2.60;;
14770;SDS011;7477;45.222;5.688;2023-07-22T00:51:46;3.60;;;3.05;;
14770;SDS011;7477;45.222;5.688;2023-07-22T00:55:05;3.28;;;2.65;;
14770;SDS011;7477;45.222;5.688;2023-07-22T00:58:25;4.38;;;2.70;;
14770;SDS011;7477;45.222;5.688;2023-07-22T01:01:44;4.15;;;2.60;;
14770;SDS011;7477;45.222;5.688;2023-07-22T01:05:03;2.78;;;2.58;;
14770;SDS011;7477;45.222;5.688;2023-07-22T01:08:24;5.05;;;2.88;;
14770;SDS011;7477;45.222;5.688;2023-07-22T01:11:43;3.85;;;2.63;;
14770;SDS011;7477;45.222;5.688;2023-07-22T01:15:03;6.82;;;2.83;;
14770;SDS011;7477;45.222;5.688;2023-07-22T01:18:26;2.38;;;2.13;;
14770;SDS011;7477;45.222;5.688;2023-07-22T01:21:46;3.17;;;2.50;;
14770;SDS011;7477;45.222;5.688;2023-07-22T01:25:06;4.25;;;2.45;;
14770;SDS011;7477;45.222;5.688;2023-07-22T01:28:26;3.50;;;2.70;;
14770;SDS011;7477;45.222;5.688;2023-07-22T01:31:46;4.57;;;2.60;;
14770;SDS011;7477;45.222;5.688;2023-07-22T01:35:07;3.67;;;2.53;;
14770;SDS011;7477;45.222;5.688;2023-07-22T01:38:27;2.70;;;2.47;;
14770;SDS011;7477;45.222;5.688;2023-07-22T01:41:48;3.35;;;2.28;;
14770;SDS011;7477;45.222;5.688;2023-07-22T01:45:07;3.30;;;2.90;;
14770;SDS011;7477;45.222;5.688;2023-07-22T01:48:27;3.20;;;2.63;;
14770;SDS011;7477;45.222;5.688;2023-07-22T01:51:47;3.95;;;2.53;;
14770;SDS011;7477;45.222;5.688;2023-07-22T01:55:06;8.32;;;2.90;;
14770;SDS011;7477;45.222;5.688;2023-07-22T01:58:29;4.50;;;3.20;;
14770;SDS011;7477;45.222;5.688;2023-07-22T02:01:48;4.50;;;2.83;;
14770;SDS011;7477;45.222;5.688;2023-07-22T02:05:08;7.05;;;3.00;;
14770;SDS011;7477;45.222;5.688;2023-07-22T02:08:31;3.65;;;2.55;;
14770;SDS011;7477;45.222;5.688;2023-07-22T02:11:50;3.17;;;2.60;;
14770;SDS011;7477;45.222;5.688;2023-07-22T02:15:09;3.50;;;2.30;;
14770;SDS011;7477;45.222;5.688;2023-07-22T02:18:29;3.67;;;2.80;;
14770;SDS011;7477;45.222;5.688;2023-07-22T02:21:48;5.38;;;2.97;;
14770;SDS011;7477;45.222;5.688;2023-07-22T02:25:07;3.83;;;2.55;;
14770;SDS011;7477;45.222;5.688;2023-07-22T02:28:29;3.38;;;2.50;;
14770;SDS011;7477;45.222;5.688;2023-07-22T02:31:48;5.60;;;2.95;;
14770;SDS011;7477;45.222;5.688;2023-07-22T02:35:07;5.32;;;3.08;;
14770;SDS011;7477;45.222;5.688;2023-07-22T02:38:27;4.38;;;2.90;;
14770;SDS011;7477;45.222;5.688;2023-07-22T02:41:47;3.35;;;3.00;;
14770;SDS011;7477;45.222;5.688;2023-07-22T02:45:07;5.22;;;2.85;;
14770;SDS011;7477;45.222;5.688;2023-07-22T02:48:26;5.63;;;2.80;;
14770;SDS011;7477;45.222;5.688;2023-07-22T02:51:46;5.60;;;2.88;;
14770;SDS011;7477;45.222;5.688;2023-07-22T02:55:10;4.88;;;2.70;;
14770;SDS011;7477;45.222;5.688;2023-07-22T02:58:32;4.00;;;3.00;;
14770;SDS011;7477;45.222;5.688;2023-07-22T03:01:52;3.88;;;3.00;;
14770;SDS011;7477;45.222;5.688;2023-07-22T03:05:11;2.90;;;2.60;;
14770;SDS011;7477;45.222;5.688;2023-07-22T03:08:31;6.70;;;2.75;;
14770;SDS011;7477;45.222;5.688;2023-07-22T03:11:50;7.50;;;3.25;;
14770;SDS011;7477;45.222;5.688;2023-07-22T03:15:09;7.50;;;3.00;;
14770;SDS011;7477;45.222;5.688;2023-07-22T03:18:31;3.78;;;2.67;;
14770;SDS011;7477;45.222;5.688;2023-07-22T03:21:51;3.60;;;2.80;;
14770;SDS011;7477;45.222;5.688;2023-07-22T03:25:10;3.13;;;2.83;;
14770;SDS011;7477;45.222;5.688;2023-07-22T03:28:31;8.45;;;3.60;;
14770;SDS011;7477;45.222;5.688;2023-07-22T03:31:50;4.15;;;3.10;;
14770;SDS011;7477;45.222;5.688;2023-07-22T03:35:09;6.88;;;3.58;;
14770;SDS011;7477;45.222;5.688;2023-07-22T03:38:29;3.88;;;2.88;;
14770;SDS011;7477;45.222;5.688;2023-07-22T03:41:49;4.97;;;3.33;;
14770;SDS011;7477;45.222;5.688;2023-07-22T03:45:09;5.15;;;3.00;;
14770;SDS011;7477;45.222;5.688;2023-07-22T03:48:28;3.83;;;3.08;;
14770;SDS011;7477;45.222;5.688;2023-07-22T03:51:47;3.58;;;3.05;;
14770;SDS011;7477;45.222;5.688;2023-07-22T03:55:07;4.47;;;2.92;;
14770;SDS011;7477;45.222;5.688;2023-07-22T03:58:27;4.10;;;2.95;;
14770;SDS011;7477;45.222;5.688;2023-07-22T04:01:46;5.60;;;3.33;;
14770;SDS011;7477;45.222;5.688;2023-07-22T04:05:06;4.13;;;3.13;;
14770;SDS011;7477;45.222;5.688;2023-07-22T04:08:26;3.55;;;3.00;;
14770;SDS011;7477;45.222;5.688;2023-07-22T04:11:45;3.05;;;2.58;;
14770;SDS011;7477;45.222;5.688;2023-07-22T04:15:04;3.78;;;2.88;;
14770;SDS011;7477;45.222;5.688;2023-07-22T04:18:24;3.42;;;2.83;;
14770;SDS011;7477;45.222;5.688;2023-07-22T04:21:43;3.13;;;2.50;;
14770;SDS011;7477;45.222;5.688;2023-07-22T04:25:02;5.20;;;2.90;;
14770;SDS011;7477;45.222;5.688;2023-07-22T04:28:23;3.85;;;3.30;;
14770;SDS011;7477;45.222;5.688;2023-07-22T04:31:42;3.65;;;2.92;;
14770;SDS011;7477;45.222;5.688;2023-07-22T04:35:02;3.88;;;3.20;;
14770;SDS011;7477;45.222;5.688;2023-07-22T04:38:22;3.42;;;2.90;;
14770;SDS011;7477;45.222;5.688;2023-07-22T04:41:41;4.10;;;2.97;;
14770;SDS011;7477;45.222;5.688;2023-07-22T04:45:00;4.65;;;2.83;;
14770;SDS011;7477;45.222;5.688;2023-07-22T04:48:20;3.13;;;2.55;;
14770;SDS011;7477;45.222;5.688;2023-07-22T04:51:41;3.33;;;2.80;;
14770;SDS011;7477;45.222;5.688;2023-07-22T04:55:00;3.13;;;2.50;;
14770;SDS011;7477;45.222;5.688;2023-07-22T04:58:27;4.97;;;3.10;;
14770;SDS011;7477;45.222;5.688;2023-07-22T05:01:47;3.13;;;2.80;;
14770;SDS011;7477;45.222;5.688;2023-07-22T05:05:06;3.20;;;2.78;;
14770;SDS011;7477;45.222;5.688;2023-07-22T05:08:25;4.10;;;2.50;;
14770;SDS011;7477;45.222;5.688;2023-07-22T05:11:44;3.88;;;3.00;;
14770;SDS011;7477;45.222;5.688;2023-07-22T05:15:04;4.97;;;3.08;;
14770;SDS011;7477;45.222;5.688;2023-07-22T05:18:24;4.90;;;3.10;;
14770;SDS011;7477;45.222;5.688;2023-07-22T05:21:43;3.58;;;2.80;;
14770;SDS011;7477;45.222;5.688;2023-07-22T05:25:03;3.42;;;2.85;;
14770;SDS011;7477;45.222;5.688;2023-07-22T05:28:23;4.68;;;2.97;;
14770;SDS011;7477;45.222;5.688;2023-07-22T05:31:42;4.13;;;3.00;;
14770;SDS011;7477;45.222;5.688;2023-07-22T05:35:02;4.60;;;2.75;;
14770;SDS011;7477;45.222;5.688;2023-07-22T05:38:23;4.28;;;3.13;;
14770;SDS011;7477;45.222;5.688;2023-07-22T05:41:42;4.40;;;3.17;;
14770;SDS011;7477;45.222;5.688;2023-07-22T05:45:02;3.92;;;3.20;;
14770;SDS011;7477;45.222;5.688;2023-07-22T05:48:22;4.03;;;3.28;;
14770;SDS011;7477;45.222;5.688;2023-07-22T05:51:41;4.30;;;3.25;;
14770;SDS011;7477;45.222;5.688;2023-07-22T05:55:00;4.72;;;3.00;;
14770;SDS011;7477;45.222;5.688;2023-07-22T05:58:19;4.43;;;3.10;;
14770;SDS011;7477;45.222;5.688;2023-07-22T06:01:39;5.05;;;3.03;;
14770;SDS011;7477;45.222;5.688;2023-07-22T06:04:59;3.38;;;2.70;;
14770;SDS011;7477;45.222;5.688;2023-07-22T06:08:18;3.40;;;2.78;;
14770;SDS011;7477;45.222;5.688;2023-07-22T06:11:38;6.10;;;3.30;;
14770;SDS011;7477;45.222;5.688;2023-07-22T06:14:57;3.28;;;2.70;;
14770;SDS011;7477;45.222;5.688;2023-07-22T06:18:16;4.00;;;3.00;;
14770;SDS011;7477;45.222;5.688;2023-07-22T06:21:35;5.07;;;2.67;;
14770;SDS011;7477;45.222;5.688;2023-07-22T06:24:54;5.45;;;3.15;;
14770;SDS011;7477;45.222;5.688;2023-07-22T06:28:13;3.10;;;2.70;;
14770;SDS011;7477;45.222;5.688;2023-07-22T06:31:32;2.97;;;2.63;;
14770;SDS011;7477;45.222;5.688;2023-07-22T06:34:52;3.67;;;3.03;;
14770;SDS011;7477;45.222;5.688;2023-07-22T06:38:11;6.70;;;3.22;;
14770;SDS011;7477;45.222;5.688;2023-07-22T06:41:30;7.22;;;2.88;;
14770;SDS011;7477;45.222;5.688;2023-07-22T06:44:50;3.55;;;3.10;;
14770;SDS011;7477;45.222;5.688;2023-07-22T06:48:09;3.63;;;3.25;;
14770;SDS011;7477;45.222;5.688;2023-07-22T06:51:28;4.20;;;2.88;;
14770;SDS011;7477;45.222;5.688;2023-07-22T06:54:47;5.43;;;2.95;;
14770;SDS011;7477;45.222;5.688;2023-07-22T06:58:06;3.50;;;2.75;;
14770;SDS011;7477;45.222;5.688;2023-07-22T07:01:25;4.85;;;3.33;;
14770;SDS011;7477;45.222;5.688;2023-07-22T07:04:44;4.25;;;3.25;;
14770;SDS011;7477;45.222;5.688;2023-07-22T07:08:04;8.07;;;3.63;;
14770;SDS011;7477;45.222;5.688;2023-07-22T07:11:24;5.18;;;3.28;;
14770;SDS011;7477;45.222;5.688;2023-07-22T07:14:43;3.67;;;2.95;;
14770;SDS011;7477;45.222;5.688;2023-07-22T07:18:02;5.15;;;2.97;;
14770;SDS011;7477;45.222;5.688;2023-07-22T07:21:21;3.97;;;3.15;;
14770;SDS011;7477;45.222;5.688;2023-07-22T07:24:42;5.40;;;2.97;;
14770;SDS011;7477;45.222;5.688;2023-07-22T07:28:01;3.75;;;3.08;;
14770;SDS011;7477;45.222;5.688;2023-07-22T07:31:20;3.28;;;2.40;;
14770;SDS011;7477;45.222;5.688;2023-07-22T07:34:40;3.28;;;2.60;;
14770;SDS011;7477;45.222;5.688;2023-07-22T07:37:59;3.88;;;3.00;;
14770;SDS011;7477;45.222;5.688;2023-07-22T07:41:18;7.00;;;2.90;;
14770;SDS011;7477;45.222;5.688;2023-07-22T07:44:37;3.38;;;2.30;;
14770;SDS011;7477;45.222;5.688;2023-07-22T07:47:57;3.53;;;2.83;;
14770;SDS011;7477;45.222;5.688;2023-07-22T07:51:16;5.38;;;2.95;;
14770;SDS011;7477;45.222;5.688;2023-07-22T07:54:36;2.92;;;2.60;;
14770;SDS011;7477;45.222;5.688;2023-07-22T07:57:56;4.93;;;2.90;;
14770;SDS011;7477;45.222;5.688;2023-07-22T08:01:15;4.05;;;2.67;;
14770;SDS011;7477;45.222;5.688;2023-07-22T08:04:35;4.47;;;3.00;;
14770;SDS011;7477;45.222;5.688;2023-07-22T08:07:55;3.78;;;3.08;;
14770;SDS011;7477;45.222;5.688;2023-07-22T08:11:14;3.92;;;2.50;;
14770;SDS011;7477;45.222;5.688;2023-07-22T08:14:33;3.15;;;2.85;;
14770;SDS011;7477;45.222;5.688;2023-07-22T08:17:53;3.40;;;2.88;;
14770;SDS011;7477;45.222;5.688;2023-07-22T08:21:12;4.80;;;2.80;;
14770;SDS011;7477;45.222;5.688;2023-07-22T08:24:31;3.22;;;2.88;;
14770;SDS011;7477;45.222;5.688;2023-07-22T08:27:51;3.30;;;2.88;;
14770;SDS011;7477;45.222;5.688;2023-07-22T08:31:10;3.47;;;3.05;;
14770;SDS011;7477;45.222;5.688;2023-07-22T08:34:29;5.03;;;3.00;;
14770;SDS011;7477;45.222;5.688;2023-07-22T08:37:48;4.40;;;2.95;;
14770;SDS011;7477;45.222;5.688;2023-07-22T08:41:07;4.65;;;2.83;;
14770;SDS011;7477;45.222;5.688;2023-07-22T08:44:27;3.95;;;3.10;;
14770;SDS011;7477;45.222;5.688;2023-07-22T08:47:56;3.35;;;3.05;;
14770;SDS011;7477;45.222;5.688;2023-07-22T08:51:17;4.68;;;2.80;;
14770;SDS011;7477;45.222;5.688;2023-07-22T08:54:37;5.32;;;2.80;;
14770;SDS011;7477;45.222;5.688;2023-07-22T08:57:57;3.35;;;3.00;;
14770;SDS011;7477;45.222;5.688;2023-07-22T09:01:17;4.45;;;2.78;;
14770;SDS011;7477;45.222;5.688;2023-07-22T09:04:37;5.50;;;3.15;;
14770;SDS011;7477;45.222;5.688;2023-07-22T09:07:56;3.45;;;2.75;;
14770;SDS011;7477;45.222;5.688;2023-07-22T09:11:16;7.07;;;3.08;;
14770;SDS011;7477;45.222;5.688;2023-07-22T09:14:38;4.00;;;2.75;;
14770;SDS011;7477;45.222;5.688;2023-07-22T09:17:58;3.80;;;2.55;;
14770;SDS011;7477;45.222;5.688;2023-07-22T09:21:17;3.72;;;2.80;;
14770;SDS011;7477;45.222;5.688;2023-07-22T09:24:37;3.13;;;2.60;;
14770;SDS011;7477;45.222;5.688;2023-07-22T09:27:59;9.38;;;2.78;;
14770;SDS011;7477;45.222;5.688;2023-07-22T09:31:23;4.32;;;2.88;;
14770;SDS011;7477;45.222;5.688;2023-07-22T09:34:54;3.50;;;2.67;;
14770;SDS011;7477;45.222;5.688;2023-07-22T09:38:14;3.42;;;2.70;;
14770;SDS011;7477;45.222;5.688;2023-07-22T09:41:41;3.40;;;2.58;;
14770;SDS011;7477;45.222;5.688;2023-07-22T09:45:00;4.53;;;2.60;;
14770;SDS011;7477;45.222;5.688;2023-07-22T09:48:21;3.65;;;2.40;;
14770;SDS011;7477;45.222;5.688;2023-07-22T09:51:41;4.13;;;2.47;;
14770;SDS011;7477;45.222;5.688;2023-07-22T09:55:00;2.58;;;2.38;;
14770;SDS011;7477;45.222;5.688;2023-07-22T09:58:19;2.85;;;2.40;;
14770;SDS011;7477;45.222;5.688;2023-07-22T10:01:39;2.75;;;2.40;;
14770;SDS011;7477;45.222;5.688;2023-07-22T10:04:59;3.35;;;2.63;;
14770;SDS011;7477;45.222;5.688;2023-07-22T10:08:22;3.13;;;2.30;;
14770;SDS011;7477;45.222;5.688;2023-07-22T10:11:43;3.05;;;2.70;;
14770;SDS011;7477;45.222;5.688;2023-07-22T10:15:03;2.83;;;2.15;;
14770;SDS011;7477;45.222;5.688;2023-07-22T10:18:23;5.07;;;2.40;;
14770;SDS011;7477;45.222;5.688;2023-07-22T10:21:44;4.75;;;2.60;;
14770;SDS011;7477;45.222;5.688;2023-07-22T10:25:04;2.67;;;2.20;;
14770;SDS011;7477;45.222;5.688;2023-07-22T10:28:25;4.00;;;2.20;;
14770;SDS011;7477;45.222;5.688;2023-07-22T10:31:45;2.60;;;2.40;;
14770;SDS011;7477;45.222;5.688;2023-07-22T10:35:04;2.30;;;2.10;;
14770;SDS011;7477;45.222;5.688;2023-07-22T10:38:28;3.17;;;2.50;;
14770;SDS011;7477;45.222;5.688;2023-07-22T10:41:48;4.53;;;2.47;;
14770;SDS011;7477;45.222;5.688;2023-07-22T10:45:22;2.85;;;2.35;;
14770;SDS011;7477;45.222;5.688;2023-07-22T10:48:47;2.70;;;2.35;;
14770;SDS011;7477;45.222;5.688;2023-07-22T10:52:06;2.03;;;1.85;;
14770;SDS011;7477;45.222;5.688;2023-07-22T10:55:25;2.97;;;2.00;;
14770;SDS011;7477;45.222;5.688;2023-07-22T11:02:03;2.25;;;2.00;;
14770;SDS011;7477;45.222;5.688;2023-07-22T11:05:40;2.60;;;2.05;;
14770;SDS011;7477;45.222;5.688;2023-07-22T11:09:06;2.30;;;1.88;;
14770;SDS011;7477;45.222;5.688;2023-07-22T11:12:26;4.60;;;2.38;;
14770;SDS011;7477;45.222;5.688;2023-07-22T11:15:48;2.92;;;1.85;;
14770;SDS011;7477;45.222;5.688;2023-07-22T11:19:07;2.30;;;1.90;;
14770;SDS011;7477;45.222;5.688;2023-07-22T11:22:26;2.20;;;2.00;;
14770;SDS011;7477;45.222;5.688;2023-07-22T11:25:48;2.33;;;2.00;;
14770;SDS011;7477;45.222;5.688;2023-07-22T11:29:07;2.08;;;1.90;;
14770;SDS011;7477;45.222;5.688;2023-07-22T11:32:28;2.35;;;2.15;;
14770;SDS011;7477;45.222;5.688;2023-07-22T11:35:47;2.00;;;1.80;;
14770;SDS011;7477;45.222;5.688;2023-07-22T11:39:07;3.17;;;2.20;;
14770;SDS011;7477;45.222;5.688;2023-07-22T11:42:28;3.83;;;2.10;;
14770;SDS011;7477;45.222;5.688;2023-07-22T11:45:49;2.15;;;1.92;;
14770;SDS011;7477;45.222;5.688;2023-07-22T11:49:09;2.10;;;1.88;;
14770;SDS011;7477;45.222;5.688;2023-07-22T11:52:28;1.90;;;1.80;;
14770;SDS011;7477;45.222;5.688;2023-07-22T11:55:47;2.47;;;2.00;;
14770;SDS011;7477;45.222;5.688;2023-07-22T11:59:06;2.90;;;1.90;;
14770;SDS011;7477;45.222;5.688;2023-07-22T12:02:27;1.75;;;1.65;;
14770;SDS011;7477;45.222;5.688;2023-07-22T12:05:53;1.95;;;1.60;;
14770;SDS011;7477;45.222;5.688;2023-07-22T12:09:12;1.60;;;1.50;;
14770;SDS011;7477;45.222;5.688;2023-07-22T12:12:32;1.95;;;1.80;;
14770;SDS011;7477;45.222;5.688;2023-07-22T12:19:21;2.13;;;1.92;;
14770;SDS011;7477;45.222;5.688;2023-07-22T12:22:41;1.58;;;1.48;;
14770;SDS011;7477;45.222;5.688;2023-07-22T12:26:01;2.28;;;1.63;;
14770;SDS011;7477;45.222;5.688;2023-07-22T12:29:20;3.83;;;1.80;;
14770;SDS011;7477;45.222;5.688;2023-07-22T12:32:40;2.30;;;1.60;;
14770;SDS011;7477;45.222;5.688;2023-07-22T12:36:00;2.08;;;1.88;;
14770;SDS011;7477;45.222;5.688;2023-07-22T12:39:20;2.40;;;1.63;;
14770;SDS011;7477;45.222;5.688;2023-07-22T12:42:41;1.70;;;1.60;;
14770;SDS011;7477;45.222;5.688;2023-07-22T12:46:00;2.92;;;1.80;;
14770;SDS011;7477;45.222;5.688;2023-07-22T12:49:19;2.35;;;2.15;;
14770;SDS011;7477;45.222;5.688;2023-07-22T12:52:39;5.45;;;2.13;;
14770;SDS011;7477;45.222;5.688;2023-07-22T12:55:58;2.78;;;1.98;;
14770;SDS011;7477;45.222;5.688;2023-07-22T12:59:17;2.75;;;1.90;;
14770;SDS011;7477;45.222;5.688;2023-07-22T13:02:37;1.90;;;1.80;;
14770;SDS011;7477;45.222;5.688;2023-07-22T13:05:57;1.80;;;1.70;;
14770;SDS011;7477;45.222;5.688;2023-07-22T13:09:17;2.53;;;1.73;;
14770;SDS011;7477;45.222;5.688;2023-07-22T13:12:37;2.53;;;1.75;;
14770;SDS011;7477;45.222;5.688;2023-07-22T13:15:56;1.98;;;1.70;;
14770;SDS011;7477;45.222;5.688;2023-07-22T13:19:16;2.83;;;2.00;;
14770;SDS011;7477;45.222;5.688;2023-07-22T13:22:35;1.90;;;1.70;;
14770;SDS011;7477;45.222;5.688;2023-07-22T13:25:55;2.00;;;1.80;;
14770;SDS011;7477;45.222;5.688;2023-07-22T13:29:14;1.83;;;1.63;;
14770;SDS011;7477;45.222;5.688;2023-07-22T13:32:33;2.85;;;2.05;;
14770;SDS011;7477;45.222;5.688;2023-07-22T13:35:52;3.38;;;2.13;;
14770;SDS011;7477;45.222;5.688;2023-07-22T13:39:11;1.65;;;1.52;;
14770;SDS011;7477;45.222;5.688;2023-07-22T13:42:30;2.05;;;1.85;;
14770;SDS011;7477;45.222;5.688;2023-07-22T13:45:49;2.10;;;1.90;;
14770;SDS011;7477;45.222;5.688;2023-07-22T13:49:08;1.70;;;1.60;;
14770;SDS011;7477;45.222;5.688;2023-07-22T13:52:28;2.25;;;1.77;;
14770;SDS011;7477;45.222;5.688;2023-07-22T13:55:47;2.08;;;1.88;;
14770;SDS011;7477;45.222;5.688;2023-07-22T13:59:06;2.50;;;1.88;;
14770;SDS011;7477;45.222;5.688;2023-07-22T14:02:26;2.47;;;1.98;;
14770;SDS011;7477;45.222;5.688;2023-07-22T14:05:46;2.28;;;1.90;;
14770;SDS011;7477;45.222;5.688;2023-07-22T14:09:05;2.55;;;1.80;;
14770;SDS011;7477;45.222;5.688;2023-07-22T14:12:24;2.15;;;1.95;;
14770;SDS011;7477;45.222;5.688;2023-07-22T14:15:43;2.38;;;1.77;;
14770;SDS011;7477;45.222;5.688;2023-07-22T14:19:02;2.22;;;1.92;;
14770;SDS011;7477;45.222;5.688;2023-07-22T14:22:21;2.85;;;1.90;;
14770;SDS011;7477;45.222;5.688;2023-07-22T14:25:40;2.13;;;1.75;;
14770;SDS011;7477;45.222;5.688;2023-07-22T14:29:00;2.50;;;1.92;;
14770;SDS011;7477;45.222;5.688;2023-07-22T14:32:19;2.63;;;2.00;;
14770;SDS011;7477;45.222;5.688;2023-07-22T14:35:38;1.95;;;1.75;;
14770;SDS011;7477;45.222;5.688;2023-07-22T14:38:57;5.50;;;2.10;;
14770;SDS011;7477;45.222;5.688;2023-07-22T14:42:17;2.28;;;2.00;;
14770;SDS011;7477;45.222;5.688;2023-07-22T14:45:36;2.15;;;1.95;;
14770;SDS011;7477;45.222;5.688;2023-07-22T14:48:55;2.00;;;1.80;;
14770;SDS011;7477;45.222;5.688;2023-07-22T14:52:14;1.98;;;1.83;;
14770;SDS011;7477;45.222;5.688;2023-07-22T14:55:33;2.22;;;2.00;;
14770;SDS011;7477;45.222;5.688;2023-07-22T14:58:52;1.70;;;1.60;;
14770;SDS011;7477;45.222;5.688;2023-07-22T15:02:12;7.35;;;1.95;;
14770;SDS011;7477;45.222;5.688;2023-07-22T15:05:31;2.00;;;1.80;;
14770;SDS011;7477;45.222;5.688;2023-07-22T15:08:50;2.53;;;2.17;;
14770;SDS011;7477;45.222;5.688;2023-07-22T15:12:10;2.30;;;1.95;;
14770;SDS011;7477;45.222;5.688;2023-07-22T15:15:29;2.50;;;1.90;;
14770;SDS011;7477;45.222;5.688;2023-07-22T15:18:48;2.33;;;1.88;;
14770;SDS011;7477;45.222;5.688;2023-07-22T15:22:07;2.22;;;1.67;;
14770;SDS011;7477;45.222;5.688;2023-07-22T15:25:26;1.80;;;1.70;;
14770;SDS011;7477;45.222;5.688;2023-07-22T15:28:45;2.08;;;1.88;;
14770;SDS011;7477;45.222;5.688;2023-07-22T15:32:05;2.40;;;1.88;;
14770;SDS011;7477;45.222;5.688;2023-07-22T15:35:25;2.65;;;1.73;;
14770;SDS011;7477;45.222;5.688;2023-07-22T15:38:44;2.03;;;1.85;;
14770;SDS011;7477;45.222;5.688;2023-07-22T15:42:03;1.70;;;1.60;;
14770;SDS011;7477;45.222;5.688;2023-07-22T15:45:23;3.13;;;1.77;;
14770;SDS011;7477;45.222;5.688;2023-07-22T15:48:42;7.43;;;2.03;;
14770;SDS011;7477;45.222;5.688;2023-07-22T15:52:02;2.85;;;1.70;;
14770;SDS011;7477;45.222;5.688;2023-07-22T15:55:22;3.28;;;1.80;;
14770;SDS011;7477;45.222;5.688;2023-07-22T15:58:41;3.70;;;2.17;;
14770;SDS011;7477;45.222;5.688;2023-07-22T16:02:01;2.95;;;2.20;;
14770;SDS011;7477;45.222;5.688;2023-07-22T16:05:20;2.28;;;1.83;;
14770;SDS011;7477;45.222;5.688;2023-07-22T16:08:40;2.50;;;2.10;;
14770;SDS011;7477;45.222;5.688;2023-07-22T16:12:00;2.10;;;1.90;;
14770;SDS011;7477;45.222;5.688;2023-07-22T16:15:21;2.95;;;2.00;;
14770;SDS011;7477;45.222;5.688;2023-07-22T16:18:40;1.88;;;1.70;;
14770;SDS011;7477;45.222;5.688;2023-07-22T16:21:59;2.13;;;1.70;;
14770;SDS011;7477;45.222;5.688;2023-07-22T16:25:18;2.10;;;1.90;;
14770;SDS011;7477;45.222;5.688;2023-07-22T16:28:37;2.22;;;2.03;;
14770;SDS011;7477;45.222;5.688;2023-07-22T16:31:57;8.18;;;2.45;;
14770;SDS011;7477;45.222;5.688;2023-07-22T16:35:16;2.78;;;1.73;;
14770;SDS011;7477;45.222;5.688;2023-07-22T16:38:35;1.83;;;1.73;;
14770;SDS011;7477;45.222;5.688;2023-07-22T16:41:54;4.03;;;1.70;;
14770;SDS011;7477;45.222;5.688;2023-07-22T16:45:13;3.38;;;1.98;;
14770;SDS011;7477;45.222;5.688;2023-07-22T16:48:32;2.10;;;1.90;;
14770;SDS011;7477;45.222;5.688;2023-07-22T16:51:51;2.10;;;1.90;;
14770;SDS011;7477;45.222;5.688;2023-07-22T16:55:11;1.90;;;1.70;;
14770;SDS011;7477;45.222;5.688;2023-07-22T16:58:30;2.65;;;2.03;;
14770;SDS011;7477;45.222;5.688;2023-07-22T17:01:49;2.03;;;1.83;;
14770;SDS011;7477;45.222;5.688;2023-07-22T17:05:09;2.33;;;2.13;;
14770;SDS011;7477;45.222;5.688;2023-07-22T17:08:28;2.35;;;2.00;;
14770;SDS011;7477;45.222;5.688;2023-07-22T17:11:48;2.40;;;2.20;;
14770;SDS011;7477;45.222;5.688;2023-07-22T17:15:07;3.08;;;2.25;;
14770;SDS011;7477;45.222;5.688;2023-07-22T17:18:28;2.72;;;2.05;;
14770;SDS011;7477;45.222;5.688;2023-07-22T17:21:47;3.80;;;1.90;;
14770;SDS011;7477;45.222;5.688;2023-07-22T17:25:06;2.78;;;1.80;;
14770;SDS011;7477;45.222;5.688;2023-07-22T17:28:25;2.40;;;1.98;;
14770;SDS011;7477;45.222;5.688;2023-07-22T17:31:44;2.40;;;2.10;;
14770;SDS011;7477;45.222;5.688;2023-07-22T17:35:03;2.88;;;2.08;;
14770;SDS011;7477;45.222;5.688;2023-07-22T17:38:23;6.55;;;1.90;;
14770;SDS011;7477;45.222;5.688;2023-07-22T17:41:43;3.40;;;1.90;;
14770;SDS011;7477;45.222;5.688;2023-07-22T17:45:03;2.90;;;2.08;;
14770;SDS011;7477;45.222;5.688;2023-07-22T17:48:24;4.55;;;2.80;;
14770;SDS011;7477;45.222;5.688;2023-07-22T17:51:43;5.50;;;2.20;;
14770;SDS011;7477;45.222;5.688;2023-07-22T17:55:02;2.67;;;2.13;;
14770;SDS011;7477;45.222;5.688;2023-07-22T17:58:22;2.10;;;1.90;;
14770;SDS011;7477;45.222;5.688;2023-07-22T18:01:41;3.42;;;3.13;;
14770;SDS011;7477;45.222;5.688;2023-07-22T18:05:00;3.78;;;2.90;;
14770;SDS011;7477;45.222;5.688;2023-07-22T18:08:19;5.28;;;2.45;;
14770;SDS011;7477;45.222;5.688;2023-07-22T18:11:39;2.97;;;2.40;;
14770;SDS011;7477;45.222;5.688;2023-07-22T18:14:58;3.70;;;3.20;;
14770;SDS011;7477;45.222;5.688;2023-07-22T18:18:18;4.70;;;2.70;;
14770;SDS011;7477;45.222;5.688;2023-07-22T18:21:37;3.42;;;2.40;;
14770;SDS011;7477;45.222;5.688;2023-07-22T18:24:56;2.75;;;2.22;;
14770;SDS011;7477;45.222;5.688;2023-07-22T18:28:15;2.65;;;2.40;;
14770;SDS011;7477;45.222;5.688;2023-07-22T18:31:34;5.72;;;2.40;;
14770;SDS011;7477;45.222;5.688;2023-07-22T18:34:53;3.78;;;2.70;;
14770;SDS011;7477;45.222;5.688;2023-07-22T18:38:16;3.53;;;2.47;;
14770;SDS011;7477;45.222;5.688;2023-07-22T18:41:36;5.60;;;2.90;;
14770;SDS011;7477;45.222;5.688;2023-07-22T18:44:56;4.03;;;2.88;;
14770;SDS011;7477;45.222;5.688;2023-07-22T18:48:15;6.03;;;2.95;;
14770;SDS011;7477;45.222;5.688;2023-07-22T18:51:35;8.15;;;3.42;;
14770;SDS011;7477;45.222;5.688;2023-07-22T18:54:54;3.25;;;2.72;;
14770;SDS011;7477;45.222;5.688;2023-07-22T18:58:13;2.80;;;2.45;;
14770;SDS011;7477;45.222;5.688;2023-07-22T19:01:32;4.50;;;2.70;;
14770;SDS011;7477;45.222;5.688;2023-07-22T19:04:51;4.03;;;2.78;;
14770;SDS011;7477;45.222;5.688;2023-07-22T19:08:10;3.35;;;3.03;;
14770;SDS011;7477;45.222;5.688;2023-07-22T19:11:30;4.10;;;2.83;;
14770;SDS011;7477;45.222;5.688;2023-07-22T19:14:49;3.20;;;2.78;;
14770;SDS011;7477;45.222;5.688;2023-07-22T19:18:12;3.65;;;2.83;;
14770;SDS011;7477;45.222;5.688;2023-07-22T19:21:31;3.13;;;2.75;;
14770;SDS011;7477;45.222;5.688;2023-07-22T19:24:50;5.03;;;3.33;;
14770;SDS011;7477;45.222;5.688;2023-07-22T19:28:09;5.57;;;3.13;;
14770;SDS011;7477;45.222;5.688;2023-07-22T19:31:28;4.63;;;3.00;;
14770;SDS011;7477;45.222;5.688;2023-07-22T19:34:48;4.85;;;3.30;;
14770;SDS011;7477;45.222;5.688;2023-07-22T19:38:07;7.53;;;3.78;;
14770;SDS011;7477;45.222;5.688;2023-07-22T19:41:26;5.03;;;3.95;;
14770;SDS011;7477;45.222;5.688;2023-07-22T19:44:45;6.22;;;4.30;;
14770;SDS011;7477;45.222;5.688;2023-07-22T19:48:05;7.43;;;4.30;;
14770;SDS011;7477;45.222;5.688;2023-07-22T19:51:25;4.10;;;3.40;;
14770;SDS011;7477;45.222;5.688;2023-07-22T19:54:44;3.08;;;2.78;;
14770;SDS011;7477;45.222;5.688;2023-07-22T19:58:03;4.70;;;3.47;;
14770;SDS011;7477;45.222;5.688;2023-07-22T20:01:22;4.50;;;3.55;;
14770;SDS011;7477;45.222;5.688;2023-07-22T20:04:42;4.40;;;3.78;;
14770;SDS011;7477;45.222;5.688;2023-07-22T20:08:01;4.32;;;3.00;;
14770;SDS011;7477;45.222;5.688;2023-07-22T20:11:21;4.35;;;3.47;;
14770;SDS011;7477;45.222;5.688;2023-07-22T20:14:40;3.97;;;3.20;;
14770;SDS011;7477;45.222;5.688;2023-07-22T20:17:59;8.63;;;2.97;;
14770;SDS011;7477;45.222;5.688;2023-07-22T20:21:19;5.22;;;3.13;;
14770;SDS011;7477;45.222;5.688;2023-07-22T20:24:38;3.90;;;3.08;;
14770;SDS011;7477;45.222;5.688;2023-07-22T20:27:57;3.95;;;3.08;;